createdAt,value
2023-04-23T00:02:55.479Z,5.61
2023-04-23T00:08:00.634Z,5.70
2023-04-23T00:13:04.627Z,5.84
2023-04-23T00:18:08.124Z,5.72
2023-04-23T00:23:11.137Z,5.61
2023-04-23T00:28:13.904Z,5.45
2023-04-23T00:33:16.818Z,5.36
2023-04-23T00:38:21.225Z,5.40
2023-04-23T00:43:24.188Z,5.48
2023-04-23T00:48:29.123Z,5.47
2023-04-23T00:53:33.593Z,5.32
2023-04-23T00:58:36.807Z,5.23
2023-04-23T01:03:43.048Z,5.34
2023-04-23T01:08:47.760Z,5.45
2023-04-23T01:13:50.768Z,5.42
2023-04-23T01:18:53.965Z,5.30
2023-04-23T01:23:56.744Z,5.17
2023-04-23T01:29:01.343Z,5.23
2023-04-23T01:34:04.631Z,5.27
2023-04-23T01:39:09.122Z,5.19
2023-04-23T01:44:12.298Z,5.08
2023-04-23T01:49:15.735Z,4.97
2023-04-23T01:54:18.565Z,5.00
2023-04-23T01:59:24.402Z,5.02
2023-04-23T02:04:28.226Z,5.03
2023-04-23T02:09:31.160Z,4.99
2023-04-23T02:14:34.053Z,4.86
2023-04-23T02:19:36.851Z,4.95
2023-04-23T02:24:42.254Z,5.11
2023-04-23T02:29:46.716Z,5.07
2023-04-23T02:34:49.481Z,4.97
2023-04-23T02:39:52.256Z,4.82
2023-04-23T02:44:54.996Z,4.84
2023-04-23T02:49:59.321Z,4.95
2023-04-23T02:55:05.277Z,4.84
2023-04-23T03:00:09.670Z,4.78
2023-04-23T03:05:12.806Z,4.66
2023-04-23T03:10:15.736Z,4.74
2023-04-23T03:15:18.821Z,4.80
2023-04-23T03:20:21.936Z,4.84
2023-04-23T03:25:25.902Z,4.77
2023-04-23T03:30:29.801Z,4.68
2023-04-23T03:35:32.738Z,4.65
2023-04-23T03:40:35.894Z,4.84
2023-04-23T03:45:38.661Z,5.11
2023-04-23T03:50:41.495Z,5.18
2023-04-23T03:55:44.957Z,5.29
2023-04-23T04:00:47.822Z,5.38
2023-04-23T04:05:50.665Z,5.50
2023-04-23T04:10:53.659Z,5.81
2023-04-23T04:15:56.603Z,6.18
2023-04-23T04:20:59.793Z,6.54
2023-04-23T04:26:02.801Z,7.08
2023-04-23T04:31:06.911Z,7.22
2023-04-23T04:36:09.889Z,7.58
2023-04-23T04:41:13.288Z,7.67
2023-04-23T04:46:16.277Z,7.84
2023-04-23T04:51:20.375Z,8.13
2023-04-23T04:56:24.166Z,8.86
2023-04-23T05:01:29.074Z,11.12
2023-04-23T05:06:32.471Z,13.02
2023-04-23T05:11:36.044Z,14.37
2023-04-23T05:16:38.918Z,15.94
2023-04-23T05:21:42.683Z,17.24
2023-04-23T05:26:45.587Z,18.36
2023-04-23T05:31:51.853Z,18.59
2023-04-23T05:36:54.756Z,19.67
2023-04-23T05:41:58.155Z,20.83
2023-04-23T05:47:01.072Z,21.77
2023-04-23T05:52:04.036Z,22.64
2023-04-23T05:57:07.114Z,23.56
2023-04-23T06:02:11.241Z,24.39
2023-04-23T06:07:15.319Z,25.03
2023-04-23T06:12:18.493Z,25.62
2023-04-23T06:17:21.393Z,26.19
2023-04-23T06:22:24.266Z,26.54
2023-04-23T06:27:27.298Z,27.01
2023-04-23T06:32:30.137Z,27.38
2023-04-23T06:37:32.990Z,26.94
2023-04-23T06:42:35.958Z,27.26
2023-04-23T06:47:38.763Z,27.61
2023-04-23T06:52:41.963Z,27.68
2023-04-23T06:57:44.917Z,27.87
2023-04-23T07:02:47.924Z,27.90
2023-04-23T07:07:50.978Z,27.35
2023-04-23T07:12:53.745Z,27.97
2023-04-23T07:17:56.804Z,28.29
2023-04-23T07:22:59.904Z,28.70
2023-04-23T07:28:02.835Z,28.64
2023-04-23T07:33:06.162Z,28.66
2023-04-23T07:38:09.139Z,29.22
2023-04-23T07:43:12.484Z,29.35
2023-04-23T07:48:15.363Z,29.27
2023-04-23T07:53:18.334Z,28.90
2023-04-23T07:58:21.343Z,28.83
2023-04-23T08:03:24.650Z,29.22
2023-04-23T08:08:27.701Z,29.15
2023-04-23T08:13:30.641Z,28.90
2023-04-23T08:18:33.523Z,29.22
2023-04-23T08:23:36.323Z,29.08
2023-04-23T08:28:39.131Z,28.92
2023-04-23T08:33:42.044Z,29.02
2023-04-23T08:38:44.883Z,29.12
2023-04-23T08:44:14.675Z,28.98
2023-04-23T08:49:18.907Z,28.74
2023-04-23T08:54:28.066Z,28.87
2023-04-23T08:59:32.114Z,28.97
2023-04-23T09:04:36.470Z,28.84
2023-04-23T09:09:41.059Z,28.98
2023-04-23T09:14:45.143Z,28.86
2023-04-23T09:19:51.100Z,28.45
2023-04-23T09:24:54.584Z,28.39
2023-04-23T09:29:59.597Z,28.79
2023-04-23T09:35:07.911Z,28.76
2023-04-23T09:40:18.559Z,28.82
2023-04-23T09:45:22.141Z,28.80
2023-04-23T09:50:40.009Z,28.68
2023-04-23T09:55:45.014Z,28.80
2023-04-23T10:00:48.655Z,28.83
2023-04-23T10:06:01.958Z,28.70
2023-04-23T10:11:19.839Z,28.36
2023-04-23T10:16:26.886Z,28.08
2023-04-23T10:21:46.279Z,28.13
2023-04-23T10:26:59.812Z,27.58
2023-04-23T10:32:07.206Z,27.50
2023-04-23T10:37:12.037Z,27.65
2023-04-23T10:42:16.908Z,27.56
2023-04-23T10:47:22.603Z,27.32
2023-04-23T10:52:26.281Z,27.50
2023-04-23T10:57:29.277Z,27.64
2023-04-23T11:02:44.985Z,27.62
2023-04-23T11:08:18.953Z,27.40
2023-04-23T11:13:28.194Z,27.31
2023-04-23T11:18:30.982Z,27.20
2023-04-23T11:23:34.034Z,27.23
2023-04-23T11:28:39.745Z,27.09
2023-04-23T11:33:42.791Z,27.25
2023-04-23T11:38:46.218Z,27.46
2023-04-23T11:43:49.039Z,27.27
2023-04-23T11:48:52.077Z,26.72
2023-04-23T11:53:55.048Z,26.67
2023-04-23T11:59:05.363Z,26.67
2023-04-23T12:04:13.568Z,26.57
2023-04-23T12:09:21.193Z,26.53
2023-04-23T12:14:30.640Z,26.24
2023-04-23T12:19:33.673Z,26.24
2023-04-23T12:24:54.523Z,26.23
2023-04-23T12:30:02.234Z,25.93
2023-04-23T12:35:07.256Z,25.84
2023-04-23T12:40:11.096Z,25.67
2023-04-23T12:45:13.920Z,25.76
2023-04-23T12:50:16.986Z,25.50
2023-04-23T12:55:19.900Z,24.88
2023-04-23T13:00:23.426Z,24.75
2023-04-23T13:05:26.205Z,24.33
2023-04-23T13:10:31.022Z,24.11
2023-04-23T13:15:34.060Z,23.78
2023-04-23T13:20:36.888Z,23.61
2023-04-23T13:25:39.724Z,23.74
2023-04-23T13:30:42.506Z,23.55
2023-04-23T13:35:45.311Z,23.16
2023-04-23T13:40:48.232Z,23.11
2023-04-23T13:45:54.239Z,22.98
2023-04-23T13:51:01.776Z,23.04
2023-04-23T13:56:04.956Z,23.09
2023-04-23T14:01:07.840Z,22.88
2023-04-23T14:06:11.123Z,22.72
2023-04-23T14:11:13.933Z,22.30
2023-04-23T14:16:17.608Z,21.94
2023-04-23T14:21:20.555Z,21.99
2023-04-23T14:26:49.439Z,22.20
2023-04-23T14:31:52.993Z,22.31
2023-04-23T14:36:55.955Z,22.24
2023-04-23T14:41:58.851Z,22.30
2023-04-23T14:47:02.344Z,22.40
2023-04-23T14:52:05.228Z,22.37
2023-04-23T14:57:08.152Z,22.37
2023-04-23T15:02:12.280Z,22.27
2023-04-23T15:07:15.367Z,22.20
2023-04-23T15:12:37.956Z,22.09
2023-04-23T15:17:41.528Z,21.96
2023-04-23T15:22:47.896Z,21.95
2023-04-23T15:27:57.679Z,21.95
2023-04-23T15:33:00.641Z,21.82
2023-04-23T15:38:03.835Z,21.75
2023-04-23T15:43:06.759Z,21.66
2023-04-23T15:48:10.096Z,21.52
2023-04-23T15:53:13.069Z,21.40
2023-04-23T15:58:15.931Z,21.33
2023-04-23T16:03:18.973Z,21.24
2023-04-23T16:08:22.165Z,21.15
2023-04-23T16:13:26.760Z,21.08
2023-04-23T16:18:29.650Z,21.00
2023-04-23T16:23:32.463Z,20.92
2023-04-23T16:28:35.628Z,20.83
2023-04-23T16:33:38.604Z,20.73
2023-04-23T16:38:44.945Z,20.64
2023-04-23T16:43:47.790Z,20.51
2023-04-23T16:48:50.620Z,20.40
2023-04-23T16:53:53.406Z,20.27
2023-04-23T16:58:56.527Z,20.14
2023-04-23T17:03:59.527Z,19.98
2023-04-23T17:09:05.333Z,19.85
2023-04-23T17:14:08.191Z,19.71
2023-04-23T17:19:11.665Z,19.52
2023-04-23T17:24:14.559Z,19.32
2023-04-23T17:29:17.420Z,19.12
2023-04-23T17:34:20.205Z,18.93
2023-04-23T17:39:23.808Z,18.71
2023-04-23T17:44:26.746Z,18.50
2023-04-23T17:49:29.614Z,18.30
2023-04-23T17:54:32.546Z,18.11
2023-04-23T17:59:35.795Z,17.90
2023-04-23T18:04:38.651Z,17.73
2023-04-23T18:09:41.429Z,17.53
2023-04-23T18:14:44.318Z,17.34
2023-04-23T18:19:48.967Z,17.20
2023-04-23T18:24:51.792Z,17.06
2023-04-23T18:29:57.626Z,16.92
2023-04-23T18:35:01.996Z,16.81
2023-04-23T18:40:06.908Z,16.78
2023-04-23T18:45:10.793Z,16.77
2023-04-23T18:50:50.099Z,16.82
2023-04-23T18:55:52.902Z,16.94
2023-04-23T19:00:56.527Z,16.89
2023-04-23T19:05:59.645Z,16.73
2023-04-23T19:11:03.790Z,16.54
2023-04-23T19:16:08.942Z,16.35
2023-04-23T19:21:12.206Z,16.11
2023-04-23T19:26:15.017Z,15.92
2023-04-23T19:31:17.977Z,15.73
2023-04-23T19:36:20.959Z,15.56
2023-04-23T19:41:23.783Z,15.46
2023-04-23T19:46:26.685Z,15.38
2023-04-23T19:51:35.501Z,15.24
2023-04-23T19:56:38.331Z,15.11
2023-04-23T20:01:45.560Z,15.00
2023-04-23T20:06:48.412Z,14.92
2023-04-23T20:11:52.829Z,14.79
2023-04-23T20:16:56.802Z,14.69
2023-04-23T20:21:59.610Z,14.63
2023-04-23T20:27:02.489Z,14.59
2023-04-23T20:32:05.729Z,14.56
2023-04-23T20:37:08.814Z,14.55
2023-04-23T20:42:12.075Z,14.55
2023-04-23T20:47:18.720Z,14.53
2023-04-23T20:52:21.653Z,14.49
2023-04-23T20:57:24.498Z,14.43
2023-04-23T21:02:27.500Z,14.38
2023-04-23T21:07:31.131Z,14.33
2023-04-23T21:12:34.041Z,14.29
2023-04-23T21:17:36.904Z,14.23
2023-04-23T21:22:39.802Z,14.15
2023-04-23T21:27:46.016Z,14.08
2023-04-23T21:32:52.218Z,14.02
2023-04-23T21:37:55.382Z,14.00
2023-04-23T21:42:58.211Z,13.99
2023-04-23T21:48:02.002Z,13.99
2023-04-23T21:53:06.959Z,13.98
2023-04-23T22:03:20.533Z,13.94
2023-04-23T22:08:40.484Z,13.91
2023-04-23T22:13:43.406Z,13.86
2023-04-23T22:18:46.175Z,13.81
2023-04-23T22:23:49.055Z,13.75
2023-04-23T22:28:52.306Z,13.73
2023-04-23T22:33:55.305Z,13.80
2023-04-23T22:38:58.503Z,13.82
2023-04-23T22:44:01.270Z,13.72
2023-04-23T22:49:07.754Z,13.58
2023-04-23T22:54:10.662Z,13.51
2023-04-23T22:59:13.699Z,13.43
2023-04-23T23:04:16.580Z,13.37
2023-04-23T23:09:19.466Z,13.29
2023-04-23T23:14:23.213Z,13.30
2023-04-23T23:19:28.282Z,13.43
2023-04-23T23:24:31.092Z,13.48
2023-04-23T23:29:34.216Z,13.43
2023-04-23T23:34:37.010Z,13.29
2023-04-23T23:39:40.000Z,13.11
2023-04-23T23:44:42.951Z,12.92
2023-04-23T23:49:45.883Z,12.83
2023-04-23T23:54:48.791Z,12.74
2023-04-23T23:59:51.567Z,12.67
